sensor_id;sensor_type;location;lat;lon;timestamp;P1;durP1;ratioP1;P2;durP2;ratioP2
82409;SDS011;72049;51.766;6.846;2023-10-31T00:00:27;7.23;;;3.80;;
82409;SDS011;72049;51.766;6.846;2023-10-31T00:02:53;7.07;;;4.20;;
82409;SDS011;72049;51.766;6.846;2023-10-31T00:05:18;7.30;;;4.25;;
82409;SDS011;72049;51.766;6.846;2023-10-31T00:07:44;8.40;;;4.35;;
82409;SDS011;72049;51.766;6.846;2023-10-31T00:10:09;7.20;;;4.70;;
82409;SDS011;72049;51.766;6.846;2023-10-31T00:12:35;7.15;;;4.40;;
82409;SDS011;72049;51.766;6.846;2023-10-31T00:15:00;6.55;;;4.10;;
82409;SDS011;72049;51.766;6.846;2023-10-31T00:17:25;8.13;;;5.13;;
82409;SDS011;72049;51.766;6.846;2023-10-31T00:19:50;9.53;;;5.40;;
82409;SDS011;72049;51.766;6.846;2023-10-31T00:22:16;7.03;;;4.10;;
82409;SDS011;72049;51.766;6.846;2023-10-31T00:24:41;7.43;;;4.47;;
82409;SDS011;72049;51.766;6.846;2023-10-31T00:27:07;5.68;;;3.80;;
82409;SDS011;72049;51.766;6.846;2023-10-31T00:29:33;5.75;;;3.63;;
82409;SDS011;72049;51.766;6.846;2023-10-31T00:31:58;3.97;;;2.28;;
82409;SDS011;72049;51.766;6.846;2023-10-31T00:34:23;5.17;;;2.37;;
82409;SDS011;72049;51.766;6.846;2023-10-31T00:36:49;5.32;;;2.97;;
82409;SDS011;72049;51.766;6.846;2023-10-31T00:39:14;4.38;;;2.28;;
82409;SDS011;72049;51.766;6.846;2023-10-31T00:41:43;4.40;;;2.30;;
82409;SDS011;72049;51.766;6.846;2023-10-31T00:44:09;3.85;;;2.10;;
82409;SDS011;72049;51.766;6.846;2023-10-31T00:46:34;3.87;;;1.97;;
82409;SDS011;72049;51.766;6.846;2023-10-31T00:49:00;4.55;;;2.13;;
82409;SDS011;72049;51.766;6.846;2023-10-31T00:51:26;3.22;;;1.73;;
82409;SDS011;72049;51.766;6.846;2023-10-31T00:53:52;4.03;;;1.93;;
82409;SDS011;72049;51.766;6.846;2023-10-31T00:56:17;3.40;;;2.13;;
82409;SDS011;72049;51.766;6.846;2023-10-31T00:58:42;2.90;;;1.40;;
82409;SDS011;72049;51.766;6.846;2023-10-31T01:01:08;2.57;;;1.57;;
82409;SDS011;72049;51.766;6.846;2023-10-31T01:03:33;2.77;;;1.63;;
82409;SDS011;72049;51.766;6.846;2023-10-31T01:05:58;2.60;;;1.70;;
82409;SDS011;72049;51.766;6.846;2023-10-31T01:08:24;3.25;;;1.80;;
82409;SDS011;72049;51.766;6.846;2023-10-31T01:10:49;2.58;;;1.52;;
82409;SDS011;72049;51.766;6.846;2023-10-31T01:13:15;3.07;;;1.13;;
82409;SDS011;72049;51.766;6.846;2023-10-31T01:15:40;3.50;;;1.60;;
82409;SDS011;72049;51.766;6.846;2023-10-31T01:18:05;2.17;;;1.33;;
82409;SDS011;72049;51.766;6.846;2023-10-31T01:20:31;2.47;;;1.30;;
82409;SDS011;72049;51.766;6.846;2023-10-31T01:22:56;2.13;;;1.23;;
82409;SDS011;72049;51.766;6.846;2023-10-31T01:25:22;1.95;;;0.80;;
82409;SDS011;72049;51.766;6.846;2023-10-31T01:27:47;1.80;;;1.00;;
82409;SDS011;72049;51.766;6.846;2023-10-31T01:30:12;2.43;;;1.10;;
82409;SDS011;72049;51.766;6.846;2023-10-31T01:32:38;1.98;;;1.10;;
82409;SDS011;72049;51.766;6.846;2023-10-31T01:35:04;2.03;;;1.33;;
82409;SDS011;72049;51.766;6.846;2023-10-31T01:37:29;2.40;;;1.13;;
82409;SDS011;72049;51.766;6.846;2023-10-31T01:39:54;3.58;;;1.15;;
82409;SDS011;72049;51.766;6.846;2023-10-31T01:42:20;2.97;;;1.30;;
82409;SDS011;72049;51.766;6.846;2023-10-31T01:44:45;2.17;;;1.20;;
82409;SDS011;72049;51.766;6.846;2023-10-31T01:47:10;2.67;;;1.40;;
82409;SDS011;72049;51.766;6.846;2023-10-31T01:49:36;2.90;;;1.60;;
82409;SDS011;72049;51.766;6.846;2023-10-31T01:52:02;3.75;;;1.63;;
82409;SDS011;72049;51.766;6.846;2023-10-31T01:54:29;5.15;;;2.05;;
82409;SDS011;72049;51.766;6.846;2023-10-31T01:56:55;2.83;;;1.65;;
82409;SDS011;72049;51.766;6.846;2023-10-31T01:59:23;2.50;;;1.20;;
82409;SDS011;72049;51.766;6.846;2023-10-31T02:01:48;2.78;;;1.27;;
82409;SDS011;72049;51.766;6.846;2023-10-31T02:04:14;2.13;;;1.13;;
82409;SDS011;72049;51.766;6.846;2023-10-31T02:06:39;4.07;;;1.80;;
82409;SDS011;72049;51.766;6.846;2023-10-31T02:09:05;3.78;;;2.22;;
82409;SDS011;72049;51.766;6.846;2023-10-31T02:11:31;4.45;;;1.88;;
82409;SDS011;72049;51.766;6.846;2023-10-31T02:13:57;3.00;;;1.67;;
82409;SDS011;72049;51.766;6.846;2023-10-31T02:16:22;7.15;;;2.13;;
82409;SDS011;72049;51.766;6.846;2023-10-31T02:18:48;5.55;;;2.33;;
82409;SDS011;72049;51.766;6.846;2023-10-31T02:21:13;4.07;;;2.67;;
82409;SDS011;72049;51.766;6.846;2023-10-31T02:23:38;5.97;;;2.63;;
82409;SDS011;72049;51.766;6.846;2023-10-31T02:26:04;5.77;;;3.10;;
82409;SDS011;72049;51.766;6.846;2023-10-31T02:28:29;6.78;;;3.83;;
82409;SDS011;72049;51.766;6.846;2023-10-31T02:30:55;7.43;;;3.70;;
82409;SDS011;72049;51.766;6.846;2023-10-31T02:33:20;7.43;;;4.35;;
82409;SDS011;72049;51.766;6.846;2023-10-31T02:35:46;8.98;;;4.32;;
82409;SDS011;72049;51.766;6.846;2023-10-31T02:38:11;8.90;;;4.60;;
82409;SDS011;72049;51.766;6.846;2023-10-31T02:40:37;10.38;;;5.13;;
82409;SDS011;72049;51.766;6.846;2023-10-31T02:43:03;9.77;;;4.90;;
82409;SDS011;72049;51.766;6.846;2023-10-31T02:45:29;8.43;;;4.22;;
82409;SDS011;72049;51.766;6.846;2023-10-31T02:47:54;9.82;;;4.75;;
82409;SDS011;72049;51.766;6.846;2023-10-31T02:50:20;9.30;;;4.60;;
82409;SDS011;72049;51.766;6.846;2023-10-31T02:52:45;9.97;;;5.73;;
82409;SDS011;72049;51.766;6.846;2023-10-31T02:55:10;10.60;;;5.35;;
82409;SDS011;72049;51.766;6.846;2023-10-31T02:57:36;14.35;;;6.05;;
82409;SDS011;72049;51.766;6.846;2023-10-31T03:00:01;15.33;;;6.93;;
82409;SDS011;72049;51.766;6.846;2023-10-31T03:02:28;14.32;;;6.95;;
82409;SDS011;72049;51.766;6.846;2023-10-31T03:04:53;12.77;;;6.68;;
82409;SDS011;72049;51.766;6.846;2023-10-31T03:07:18;13.30;;;6.57;;
82409;SDS011;72049;51.766;6.846;2023-10-31T03:09:44;16.90;;;7.30;;
82409;SDS011;72049;51.766;6.846;2023-10-31T03:12:09;14.53;;;6.00;;
82409;SDS011;72049;51.766;6.846;2023-10-31T03:14:34;14.88;;;7.82;;
82409;SDS011;72049;51.766;6.846;2023-10-31T03:17:00;13.43;;;6.47;;
82409;SDS011;72049;51.766;6.846;2023-10-31T03:19:25;17.50;;;8.00;;
82409;SDS011;72049;51.766;6.846;2023-10-31T03:21:51;13.48;;;6.70;;
82409;SDS011;72049;51.766;6.846;2023-10-31T03:24:16;15.10;;;7.17;;
82409;SDS011;72049;51.766;6.846;2023-10-31T03:26:41;12.70;;;5.83;;
82409;SDS011;72049;51.766;6.846;2023-10-31T03:29:06;13.40;;;6.83;;
82409;SDS011;72049;51.766;6.846;2023-10-31T03:31:32;13.53;;;7.33;;
82409;SDS011;72049;51.766;6.846;2023-10-31T03:33:57;12.77;;;6.03;;
82409;SDS011;72049;51.766;6.846;2023-10-31T03:36:22;16.30;;;7.57;;
82409;SDS011;72049;51.766;6.846;2023-10-31T03:38:47;15.93;;;7.03;;
82409;SDS011;72049;51.766;6.846;2023-10-31T03:41:13;12.93;;;6.27;;
82409;SDS011;72049;51.766;6.846;2023-10-31T03:43:38;17.00;;;7.13;;
82409;SDS011;72049;51.766;6.846;2023-10-31T03:46:03;14.87;;;6.80;;
82409;SDS011;72049;51.766;6.846;2023-10-31T03:48:29;15.40;;;7.40;;
82409;SDS011;72049;51.766;6.846;2023-10-31T03:50:54;17.87;;;7.60;;
82409;SDS011;72049;51.766;6.846;2023-10-31T03:53:19;15.30;;;6.93;;
82409;SDS011;72049;51.766;6.846;2023-10-31T03:55:45;17.27;;;7.63;;
82409;SDS011;72049;51.766;6.846;2023-10-31T03:58:10;16.05;;;7.50;;
82409;SDS011;72049;51.766;6.846;2023-10-31T04:00:36;17.15;;;8.65;;
82409;SDS011;72049;51.766;6.846;2023-10-31T04:03:01;17.30;;;7.83;;
82409;SDS011;72049;51.766;6.846;2023-10-31T04:05:27;15.70;;;7.37;;
82409;SDS011;72049;51.766;6.846;2023-10-31T04:07:52;16.17;;;8.00;;
82409;SDS011;72049;51.766;6.846;2023-10-31T04:10:18;14.63;;;7.93;;
82409;SDS011;72049;51.766;6.846;2023-10-31T04:12:44;16.45;;;8.35;;
82409;SDS011;72049;51.766;6.846;2023-10-31T04:15:09;17.33;;;7.87;;
82409;SDS011;72049;51.766;6.846;2023-10-31T04:17:34;20.25;;;9.73;;
82409;SDS011;72049;51.766;6.846;2023-10-31T04:20:00;16.38;;;9.15;;
82409;SDS011;72049;51.766;6.846;2023-10-31T04:22:25;17.05;;;7.82;;
82409;SDS011;72049;51.766;6.846;2023-10-31T04:24:51;21.80;;;8.60;;
82409;SDS011;72049;51.766;6.846;2023-10-31T04:27:16;21.83;;;9.77;;
82409;SDS011;72049;51.766;6.846;2023-10-31T04:29:41;22.70;;;10.27;;
82409;SDS011;72049;51.766;6.846;2023-10-31T04:32:07;25.10;;;10.67;;
82409;SDS011;72049;51.766;6.846;2023-10-31T04:34:32;23.45;;;10.25;;
82409;SDS011;72049;51.766;6.846;2023-10-31T04:36:57;19.90;;;9.10;;
82409;SDS011;72049;51.766;6.846;2023-10-31T04:39:23;20.17;;;10.07;;
82409;SDS011;72049;51.766;6.846;2023-10-31T04:41:48;21.98;;;10.30;;
82409;SDS011;72049;51.766;6.846;2023-10-31T04:44:13;19.77;;;9.27;;
82409;SDS011;72049;51.766;6.846;2023-10-31T04:46:39;23.65;;;10.65;;
82409;SDS011;72049;51.766;6.846;2023-10-31T04:49:04;24.97;;;10.87;;
82409;SDS011;72049;51.766;6.846;2023-10-31T04:51:34;20.83;;;8.98;;
82409;SDS011;72049;51.766;6.846;2023-10-31T04:53:59;23.02;;;9.23;;
82409;SDS011;72049;51.766;6.846;2023-10-31T04:56:25;22.57;;;10.20;;
82409;SDS011;72049;51.766;6.846;2023-10-31T04:58:50;18.27;;;8.17;;
82409;SDS011;72049;51.766;6.846;2023-10-31T05:01:15;18.07;;;9.17;;
82409;SDS011;72049;51.766;6.846;2023-10-31T05:03:41;16.98;;;8.73;;
82409;SDS011;72049;51.766;6.846;2023-10-31T05:06:06;18.03;;;7.63;;
82409;SDS011;72049;51.766;6.846;2023-10-31T05:08:32;17.42;;;8.23;;
82409;SDS011;72049;51.766;6.846;2023-10-31T05:10:57;20.57;;;9.23;;
82409;SDS011;72049;51.766;6.846;2023-10-31T05:13:22;17.83;;;9.15;;
82409;SDS011;72049;51.766;6.846;2023-10-31T05:15:48;16.57;;;8.13;;
82409;SDS011;72049;51.766;6.846;2023-10-31T05:18:13;20.13;;;8.80;;
82409;SDS011;72049;51.766;6.846;2023-10-31T05:20:38;20.57;;;10.73;;
82409;SDS011;72049;51.766;6.846;2023-10-31T05:23:04;19.30;;;9.32;;
82409;SDS011;72049;51.766;6.846;2023-10-31T05:25:30;20.67;;;9.60;;
82409;SDS011;72049;51.766;6.846;2023-10-31T05:27:55;19.95;;;9.05;;
82409;SDS011;72049;51.766;6.846;2023-10-31T05:30:20;17.70;;;8.20;;
82409;SDS011;72049;51.766;6.846;2023-10-31T05:32:46;18.02;;;8.15;;
82409;SDS011;72049;51.766;6.846;2023-10-31T05:35:11;21.92;;;8.93;;
82409;SDS011;72049;51.766;6.846;2023-10-31T05:37:37;18.53;;;8.53;;
82409;SDS011;72049;51.766;6.846;2023-10-31T05:40:02;19.00;;;8.23;;
82409;SDS011;72049;51.766;6.846;2023-10-31T05:42:27;17.58;;;9.15;;
82409;SDS011;72049;51.766;6.846;2023-10-31T05:44:53;19.07;;;8.80;;
82409;SDS011;72049;51.766;6.846;2023-10-31T05:47:19;21.45;;;9.65;;
82409;SDS011;72049;51.766;6.846;2023-10-31T05:49:44;23.20;;;10.07;;
82409;SDS011;72049;51.766;6.846;2023-10-31T05:52:10;20.88;;;8.55;;
82409;SDS011;72049;51.766;6.846;2023-10-31T05:54:35;20.58;;;8.00;;
82409;SDS011;72049;51.766;6.846;2023-10-31T05:57:00;20.50;;;8.65;;
82409;SDS011;72049;51.766;6.846;2023-10-31T05:59:26;18.17;;;8.87;;
82409;SDS011;72049;51.766;6.846;2023-10-31T06:01:51;20.20;;;9.37;;
82409;SDS011;72049;51.766;6.846;2023-10-31T06:04:16;18.83;;;9.10;;
82409;SDS011;72049;51.766;6.846;2023-10-31T06:06:42;17.37;;;8.33;;
82409;SDS011;72049;51.766;6.846;2023-10-31T06:09:07;17.10;;;8.48;;
82409;SDS011;72049;51.766;6.846;2023-10-31T06:11:34;16.98;;;8.13;;
82409;SDS011;72049;51.766;6.846;2023-10-31T06:13:59;18.97;;;8.60;;
82409;SDS011;72049;51.766;6.846;2023-10-31T06:16:25;16.40;;;8.30;;
82409;SDS011;72049;51.766;6.846;2023-10-31T06:18:50;25.35;;;7.88;;
82409;SDS011;72049;51.766;6.846;2023-10-31T06:21:16;16.38;;;7.25;;
82409;SDS011;72049;51.766;6.846;2023-10-31T06:23:42;21.02;;;9.93;;
82409;SDS011;72049;51.766;6.846;2023-10-31T06:26:10;19.70;;;9.23;;
82409;SDS011;72049;51.766;6.846;2023-10-31T06:28:35;24.92;;;11.02;;
82409;SDS011;72049;51.766;6.846;2023-10-31T06:31:02;19.55;;;9.70;;
82409;SDS011;72049;51.766;6.846;2023-10-31T06:33:27;20.80;;;9.25;;
82409;SDS011;72049;51.766;6.846;2023-10-31T06:35:53;19.35;;;8.52;;
82409;SDS011;72049;51.766;6.846;2023-10-31T06:38:18;22.83;;;10.55;;
82409;SDS011;72049;51.766;6.846;2023-10-31T06:40:44;21.13;;;9.88;;
82409;SDS011;72049;51.766;6.846;2023-10-31T06:43:09;19.05;;;9.02;;
82409;SDS011;72049;51.766;6.846;2023-10-31T06:45:35;22.30;;;9.73;;
82409;SDS011;72049;51.766;6.846;2023-10-31T06:48:00;22.58;;;8.82;;
82409;SDS011;72049;51.766;6.846;2023-10-31T06:50:25;19.90;;;8.20;;
82409;SDS011;72049;51.766;6.846;2023-10-31T06:52:51;21.00;;;9.57;;
82409;SDS011;72049;51.766;6.846;2023-10-31T06:55:16;22.17;;;9.63;;
82409;SDS011;72049;51.766;6.846;2023-10-31T06:57:41;21.03;;;10.37;;
82409;SDS011;72049;51.766;6.846;2023-10-31T07:00:08;21.67;;;10.23;;
82409;SDS011;72049;51.766;6.846;2023-10-31T07:02:34;22.15;;;9.98;;
82409;SDS011;72049;51.766;6.846;2023-10-31T07:05:00;23.48;;;9.52;;
82409;SDS011;72049;51.766;6.846;2023-10-31T07:07:25;26.03;;;10.37;;
82409;SDS011;72049;51.766;6.846;2023-10-31T07:09:50;23.42;;;9.07;;
82409;SDS011;72049;51.766;6.846;2023-10-31T07:12:15;24.50;;;10.37;;
82409;SDS011;72049;51.766;6.846;2023-10-31T07:14:41;22.67;;;9.83;;
82409;SDS011;72049;51.766;6.846;2023-10-31T07:17:06;25.53;;;9.97;;
82409;SDS011;72049;51.766;6.846;2023-10-31T07:19:31;24.13;;;11.27;;
82409;SDS011;72049;51.766;6.846;2023-10-31T07:21:56;22.53;;;10.20;;
82409;SDS011;72049;51.766;6.846;2023-10-31T07:24:22;25.37;;;10.80;;
82409;SDS011;72049;51.766;6.846;2023-10-31T07:26:47;24.57;;;10.73;;
82409;SDS011;72049;51.766;6.846;2023-10-31T07:29:12;28.73;;;13.23;;
82409;SDS011;72049;51.766;6.846;2023-10-31T07:31:38;23.23;;;9.90;;
82409;SDS011;72049;51.766;6.846;2023-10-31T07:34:03;20.90;;;9.80;;
82409;SDS011;72049;51.766;6.846;2023-10-31T07:36:29;24.88;;;11.05;;
82409;SDS011;72049;51.766;6.846;2023-10-31T07:38:54;23.13;;;9.93;;
82409;SDS011;72049;51.766;6.846;2023-10-31T07:41:19;19.37;;;9.30;;
82409;SDS011;72049;51.766;6.846;2023-10-31T07:43:44;19.13;;;8.90;;
82409;SDS011;72049;51.766;6.846;2023-10-31T07:46:10;20.57;;;9.70;;
82409;SDS011;72049;51.766;6.846;2023-10-31T07:48:35;20.97;;;9.13;;
82409;SDS011;72049;51.766;6.846;2023-10-31T07:51:00;20.42;;;9.77;;
82409;SDS011;72049;51.766;6.846;2023-10-31T07:53:26;18.97;;;8.87;;
82409;SDS011;72049;51.766;6.846;2023-10-31T07:55:51;19.70;;;9.00;;
82409;SDS011;72049;51.766;6.846;2023-10-31T07:58:16;18.10;;;8.10;;
82409;SDS011;72049;51.766;6.846;2023-10-31T08:00:42;16.02;;;7.63;;
82409;SDS011;72049;51.766;6.846;2023-10-31T08:03:07;14.63;;;7.47;;
82409;SDS011;72049;51.766;6.846;2023-10-31T08:05:32;18.50;;;8.70;;
82409;SDS011;72049;51.766;6.846;2023-10-31T08:07:57;16.13;;;7.23;;
82409;SDS011;72049;51.766;6.846;2023-10-31T08:10:23;13.18;;;6.88;;
82409;SDS011;72049;51.766;6.846;2023-10-31T08:12:48;15.90;;;7.70;;
82409;SDS011;72049;51.766;6.846;2023-10-31T08:15:14;14.18;;;7.03;;
82409;SDS011;72049;51.766;6.846;2023-10-31T08:17:40;15.43;;;7.63;;
82409;SDS011;72049;51.766;6.846;2023-10-31T08:20:06;13.95;;;7.18;;
82409;SDS011;72049;51.766;6.846;2023-10-31T08:22:32;15.10;;;7.85;;
82409;SDS011;72049;51.766;6.846;2023-10-31T08:24:57;17.00;;;7.93;;
82409;SDS011;72049;51.766;6.846;2023-10-31T08:27:22;14.93;;;7.17;;
82409;SDS011;72049;51.766;6.846;2023-10-31T08:29:48;14.68;;;6.47;;
82409;SDS011;72049;51.766;6.846;2023-10-31T08:32:13;14.33;;;7.20;;
82409;SDS011;72049;51.766;6.846;2023-10-31T08:34:38;13.43;;;7.15;;
82409;SDS011;72049;51.766;6.846;2023-10-31T08:37:03;15.70;;;7.87;;
82409;SDS011;72049;51.766;6.846;2023-10-31T08:39:29;13.70;;;7.00;;
82409;SDS011;72049;51.766;6.846;2023-10-31T08:41:56;13.88;;;7.80;;
82409;SDS011;72049;51.766;6.846;2023-10-31T08:44:21;12.07;;;6.50;;
82409;SDS011;72049;51.766;6.846;2023-10-31T08:46:47;13.50;;;6.05;;
82409;SDS011;72049;51.766;6.846;2023-10-31T08:49:13;13.13;;;7.30;;
82409;SDS011;72049;51.766;6.846;2023-10-31T08:51:38;12.32;;;6.03;;
82409;SDS011;72049;51.766;6.846;2023-10-31T08:54:03;14.17;;;5.90;;
82409;SDS011;72049;51.766;6.846;2023-10-31T08:56:28;12.43;;;7.47;;
82409;SDS011;72049;51.766;6.846;2023-10-31T08:58:54;12.07;;;6.30;;
82409;SDS011;72049;51.766;6.846;2023-10-31T09:01:19;12.77;;;6.90;;
82409;SDS011;72049;51.766;6.846;2023-10-31T09:03:45;14.30;;;6.75;;
82409;SDS011;72049;51.766;6.846;2023-10-31T09:06:10;12.23;;;6.88;;
82409;SDS011;72049;51.766;6.846;2023-10-31T09:08:35;12.07;;;5.57;;
82409;SDS011;72049;51.766;6.846;2023-10-31T09:11:03;10.10;;;6.03;;
82409;SDS011;72049;51.766;6.846;2023-10-31T09:13:28;10.52;;;5.70;;
82409;SDS011;72049;51.766;6.846;2023-10-31T09:15:54;11.67;;;5.97;;
82409;SDS011;72049;51.766;6.846;2023-10-31T09:18:19;10.83;;;6.93;;
82409;SDS011;72049;51.766;6.846;2023-10-31T09:20:44;12.33;;;6.60;;
82409;SDS011;72049;51.766;6.846;2023-10-31T09:23:10;12.13;;;6.88;;
82409;SDS011;72049;51.766;6.846;2023-10-31T09:25:35;14.48;;;6.78;;
82409;SDS011;72049;51.766;6.846;2023-10-31T09:28:00;11.07;;;6.33;;
82409;SDS011;72049;51.766;6.846;2023-10-31T09:30:26;11.53;;;5.90;;
82409;SDS011;72049;51.766;6.846;2023-10-31T09:32:52;11.35;;;5.82;;
82409;SDS011;72049;51.766;6.846;2023-10-31T09:35:17;13.63;;;7.05;;
82409;SDS011;72049;51.766;6.846;2023-10-31T09:37:42;11.13;;;6.75;;
82409;SDS011;72049;51.766;6.846;2023-10-31T09:40:08;10.57;;;6.70;;
82409;SDS011;72049;51.766;6.846;2023-10-31T09:42:35;12.02;;;7.78;;
82409;SDS011;72049;51.766;6.846;2023-10-31T09:45:00;14.13;;;7.20;;
82409;SDS011;72049;51.766;6.846;2023-10-31T09:47:26;13.43;;;6.60;;
82409;SDS011;72049;51.766;6.846;2023-10-31T09:49:51;14.20;;;7.20;;
82409;SDS011;72049;51.766;6.846;2023-10-31T09:52:17;12.77;;;6.73;;
82409;SDS011;72049;51.766;6.846;2023-10-31T09:54:42;14.05;;;7.40;;
82409;SDS011;72049;51.766;6.846;2023-10-31T09:57:07;13.18;;;7.03;;
82409;SDS011;72049;51.766;6.846;2023-10-31T09:59:34;13.23;;;6.57;;
82409;SDS011;72049;51.766;6.846;2023-10-31T10:01:59;14.13;;;6.40;;
82409;SDS011;72049;51.766;6.846;2023-10-31T10:04:24;11.15;;;5.70;;
82409;SDS011;72049;51.766;6.846;2023-10-31T10:06:51;11.90;;;6.43;;
82409;SDS011;72049;51.766;6.846;2023-10-31T10:09:16;10.65;;;5.88;;
82409;SDS011;72049;51.766;6.846;2023-10-31T10:11:42;11.27;;;6.10;;
82409;SDS011;72049;51.766;6.846;2023-10-31T10:14:07;11.80;;;6.55;;
82409;SDS011;72049;51.766;6.846;2023-10-31T10:16:34;14.43;;;6.13;;
82409;SDS011;72049;51.766;6.846;2023-10-31T10:19:15;10.45;;;5.18;;
82409;SDS011;72049;51.766;6.846;2023-10-31T10:24:12;13.02;;;5.55;;
82409;SDS011;72049;51.766;6.846;2023-10-31T10:26:38;12.63;;;6.40;;
82409;SDS011;72049;51.766;6.846;2023-10-31T10:29:03;10.20;;;5.60;;
82409;SDS011;72049;51.766;6.846;2023-10-31T10:31:28;10.27;;;5.90;;
82409;SDS011;72049;51.766;6.846;2023-10-31T10:33:54;10.27;;;5.90;;
82409;SDS011;72049;51.766;6.846;2023-10-31T10:36:20;9.85;;;5.18;;
82409;SDS011;72049;51.766;6.846;2023-10-31T10:38:45;9.43;;;5.20;;
82409;SDS011;72049;51.766;6.846;2023-10-31T10:41:11;12.07;;;6.18;;
82409;SDS011;72049;51.766;6.846;2023-10-31T10:43:39;11.10;;;5.53;;
82409;SDS011;72049;51.766;6.846;2023-10-31T10:46:05;9.75;;;4.95;;
82409;SDS011;72049;51.766;6.846;2023-10-31T10:48:32;10.57;;;6.45;;
82409;SDS011;72049;51.766;6.846;2023-10-31T10:51:04;8.73;;;4.93;;
82409;SDS011;72049;51.766;6.846;2023-10-31T10:53:35;9.60;;;5.93;;
82409;SDS011;72049;51.766;6.846;2023-10-31T10:56:09;9.98;;;5.63;;
82409;SDS011;72049;51.766;6.846;2023-10-31T11:01:04;13.07;;;6.40;;
82409;SDS011;72049;51.766;6.846;2023-10-31T11:03:30;15.27;;;7.47;;
82409;SDS011;72049;51.766;6.846;2023-10-31T11:05:56;12.48;;;7.25;;
82409;SDS011;72049;51.766;6.846;2023-10-31T11:08:23;14.25;;;6.28;;
82409;SDS011;72049;51.766;6.846;2023-10-31T11:10:48;13.00;;;7.03;;
82409;SDS011;72049;51.766;6.846;2023-10-31T11:13:15;14.38;;;7.53;;
82409;SDS011;72049;51.766;6.846;2023-10-31T11:15:40;16.07;;;7.40;;
82409;SDS011;72049;51.766;6.846;2023-10-31T11:18:06;13.45;;;7.63;;
82409;SDS011;72049;51.766;6.846;2023-10-31T11:20:31;12.35;;;6.60;;
82409;SDS011;72049;51.766;6.846;2023-10-31T11:22:57;14.52;;;7.25;;
82409;SDS011;72049;51.766;6.846;2023-10-31T11:25:29;12.77;;;6.78;;
82409;SDS011;72049;51.766;6.846;2023-10-31T11:27:56;13.30;;;6.82;;
82409;SDS011;72049;51.766;6.846;2023-10-31T11:30:27;15.65;;;6.93;;
82409;SDS011;72049;51.766;6.846;2023-10-31T11:32:53;17.40;;;7.18;;
82409;SDS011;72049;51.766;6.846;2023-10-31T11:35:22;15.57;;;7.25;;
82409;SDS011;72049;51.766;6.846;2023-10-31T11:38:03;15.32;;;6.88;;
82409;SDS011;72049;51.766;6.846;2023-10-31T11:40:58;13.93;;;7.57;;
82409;SDS011;72049;51.766;6.846;2023-10-31T11:43:22;14.32;;;6.45;;
82409;SDS011;72049;51.766;6.846;2023-10-31T11:45:48;11.63;;;5.63;;
82409;SDS011;72049;51.766;6.846;2023-10-31T11:51:50;11.00;;;5.97;;
82409;SDS011;72049;51.766;6.846;2023-10-31T12:31:52;11.02;;;5.55;;
82409;SDS011;72049;51.766;6.846;2023-10-31T12:35:19;8.90;;;6.28;;
82409;SDS011;72049;51.766;6.846;2023-10-31T12:44:24;9.63;;;4.43;;
82409;SDS011;72049;51.766;6.846;2023-10-31T12:46:50;8.27;;;4.47;;
82409;SDS011;72049;51.766;6.846;2023-10-31T12:49:17;10.80;;;4.30;;
82409;SDS011;72049;51.766;6.846;2023-10-31T12:51:55;9.85;;;4.18;;
82409;SDS011;72049;51.766;6.846;2023-10-31T12:54:27;9.25;;;4.70;;
82409;SDS011;72049;51.766;6.846;2023-10-31T12:56:52;9.27;;;4.70;;
82409;SDS011;72049;51.766;6.846;2023-10-31T12:59:17;8.63;;;4.00;;
82409;SDS011;72049;51.766;6.846;2023-10-31T13:01:44;12.05;;;5.28;;
82409;SDS011;72049;51.766;6.846;2023-10-31T13:04:09;11.48;;;4.60;;
82409;SDS011;72049;51.766;6.846;2023-10-31T13:06:34;8.97;;;4.40;;
82409;SDS011;72049;51.766;6.846;2023-10-31T13:09:00;11.18;;;4.70;;
82409;SDS011;72049;51.766;6.846;2023-10-31T13:11:29;9.20;;;3.90;;
82409;SDS011;72049;51.766;6.846;2023-10-31T13:13:55;10.85;;;4.35;;
82409;SDS011;72049;51.766;6.846;2023-10-31T13:16:20;12.00;;;4.18;;
82409;SDS011;72049;51.766;6.846;2023-10-31T13:18:46;8.98;;;3.90;;
82409;SDS011;72049;51.766;6.846;2023-10-31T13:21:11;13.20;;;4.40;;
82409;SDS011;72049;51.766;6.846;2023-10-31T13:23:39;7.72;;;3.90;;
82409;SDS011;72049;51.766;6.846;2023-10-31T13:26:04;7.50;;;3.47;;
82409;SDS011;72049;51.766;6.846;2023-10-31T13:28:30;10.43;;;4.60;;
82409;SDS011;72049;51.766;6.846;2023-10-31T13:30:57;8.80;;;4.18;;
82409;SDS011;72049;51.766;6.846;2023-10-31T13:33:23;10.45;;;4.18;;
82409;SDS011;72049;51.766;6.846;2023-10-31T13:35:48;9.50;;;3.90;;
82409;SDS011;72049;51.766;6.846;2023-10-31T13:38:13;8.33;;;3.70;;
82409;SDS011;72049;51.766;6.846;2023-10-31T13:40:39;7.53;;;3.95;;
82409;SDS011;72049;51.766;6.846;2023-10-31T13:43:05;8.18;;;3.83;;
82409;SDS011;72049;51.766;6.846;2023-10-31T13:45:30;8.43;;;3.90;;
82409;SDS011;72049;51.766;6.846;2023-10-31T13:47:55;9.50;;;4.07;;
82409;SDS011;72049;51.766;6.846;2023-10-31T13:50:21;9.87;;;4.10;;
82409;SDS011;72049;51.766;6.846;2023-10-31T13:52:48;10.13;;;4.50;;
82409;SDS011;72049;51.766;6.846;2023-10-31T13:55:14;7.90;;;4.15;;
82409;SDS011;72049;51.766;6.846;2023-10-31T13:57:39;8.87;;;4.20;;
82409;SDS011;72049;51.766;6.846;2023-10-31T14:00:04;8.47;;;3.93;;
82409;SDS011;72049;51.766;6.846;2023-10-31T14:02:38;11.73;;;5.18;;
82409;SDS011;72049;51.766;6.846;2023-10-31T14:05:03;8.90;;;4.43;;
82409;SDS011;72049;51.766;6.846;2023-10-31T14:07:29;8.57;;;4.30;;
82409;SDS011;72049;51.766;6.846;2023-10-31T14:09:55;8.05;;;4.15;;
82409;SDS011;72049;51.766;6.846;2023-10-31T14:12:21;7.88;;;3.88;;
82409;SDS011;72049;51.766;6.846;2023-10-31T14:14:46;10.38;;;4.43;;
82409;SDS011;72049;51.766;6.846;2023-10-31T14:17:14;7.88;;;4.53;;
82409;SDS011;72049;51.766;6.846;2023-10-31T14:19:39;8.70;;;3.88;;
82409;SDS011;72049;51.766;6.846;2023-10-31T14:22:04;7.40;;;3.60;;
82409;SDS011;72049;51.766;6.846;2023-10-31T14:24:30;9.10;;;4.03;;
82409;SDS011;72049;51.766;6.846;2023-10-31T14:26:56;7.20;;;3.08;;
82409;SDS011;72049;51.766;6.846;2023-10-31T14:29:24;10.20;;;4.70;;
82409;SDS011;72049;51.766;6.846;2023-10-31T14:31:49;8.37;;;3.77;;
82409;SDS011;72049;51.766;6.846;2023-10-31T14:34:14;8.93;;;3.40;;
82409;SDS011;72049;51.766;6.846;2023-10-31T14:36:39;9.03;;;3.80;;
82409;SDS011;72049;51.766;6.846;2023-10-31T14:39:05;9.23;;;3.93;;
82409;SDS011;72049;51.766;6.846;2023-10-31T14:41:30;7.68;;;3.20;;
82409;SDS011;72049;51.766;6.846;2023-10-31T14:43:58;6.15;;;3.72;;
82409;SDS011;72049;51.766;6.846;2023-10-31T14:46:23;7.70;;;3.20;;
82409;SDS011;72049;51.766;6.846;2023-10-31T14:48:49;8.10;;;3.73;;
82409;SDS011;72049;51.766;6.846;2023-10-31T14:51:15;7.88;;;3.22;;
82409;SDS011;72049;51.766;6.846;2023-10-31T14:53:40;6.53;;;3.30;;
82409;SDS011;72049;51.766;6.846;2023-10-31T14:56:05;6.63;;;3.67;;
82409;SDS011;72049;51.766;6.846;2023-10-31T14:58:31;7.40;;;3.45;;
82409;SDS011;72049;51.766;6.846;2023-10-31T15:00:56;9.02;;;3.40;;
82409;SDS011;72049;51.766;6.846;2023-10-31T15:03:21;6.60;;;3.20;;
82409;SDS011;72049;51.766;6.846;2023-10-31T15:05:47;6.68;;;3.35;;
82409;SDS011;72049;51.766;6.846;2023-10-31T15:08:12;7.35;;;3.38;;
82409;SDS011;72049;51.766;6.846;2023-10-31T15:10:41;5.10;;;2.92;;
82409;SDS011;72049;51.766;6.846;2023-10-31T15:13:06;5.72;;;2.92;;
82409;SDS011;72049;51.766;6.846;2023-10-31T15:15:31;6.80;;;3.37;;
82409;SDS011;72049;51.766;6.846;2023-10-31T15:17:56;6.77;;;3.43;;
82409;SDS011;72049;51.766;6.846;2023-10-31T15:20:22;8.17;;;3.30;;
82409;SDS011;72049;51.766;6.846;2023-10-31T15:22:49;7.03;;;3.43;;